Time;durP1;ratioP1;P1;durP2;ratioP2;P2;SDS_P1;SDS_P2;PMS_P1;PMS_P2;Temp;Humidity;BMP_temperature;BMP_pressure;BME280_temperature;BME280_humidity;BME280_pressure;Samples;Min_cycle;Max_cycle;Signal;HPM_P1;HPM_P2
2021/09/15 00:00:29;;;;;;;8.07;5.07;;;;;;;16.16;75.91;92915.69;4973781;28;20046;-95
2021/09/15 00:03:20;;;;;;;8.73;5.97;;;;;;;15.83;75.57;92866.00;4931282;28;20129;-93
2021/09/15 00:06:46;;;;;;;8.30;5.38;;;;;;;16.10;75.22;92896.59;4966411;28;20204;-94
2021/09/15 00:10:01;;;;;;;7.90;5.18;;;;;;;16.11;75.06;92881.53;4961363;28;20038;-95
2021/09/15 00:12:46;;;;;;;9.68;5.85;;;;;;;16.20;74.77;92884.94;4993540;28;20076;-92
2021/09/15 00:18:58;;;;;;;8.48;5.13;;;;;;;15.99;74.67;92853.88;4981606;28;20754;-93
2021/09/15 00:21:34;;;;;;;9.55;5.50;;;;;;;16.22;74.99;92890.69;4976926;28;20041;-93
2021/09/15 00:24:49;;;;;;;9.23;5.30;;;;;;;15.88;75.12;92847.34;4931296;28;20043;-93
2021/09/15 00:27:53;;;;;;;7.28;4.70;;;;;;;16.19;75.20;92892.09;4943282;28;20054;-93
2021/09/15 00:30:45;;;;;;;;;;;;;;;16.18;75.36;92895.03;4958947;28;20188;-94
2021/09/15 00:33:43;;;;;;;;;;;;;;;;;;;;;
2021/09/15 00:37:27;;;;;;;8.45;5.50;;;;;;;15.97;75.63;92871.88;4994044;28;20039;-94
2021/09/15 00:40:17;;;;;;;8.13;4.72;;;;;;;15.82;75.56;92853.84;4979358;28;20050;-92
2021/09/15 00:43:52;;;;;;;11.65;5.47;;;;;;;15.96;75.58;92885.41;4965583;28;20618;-93
2021/09/15 00:49:48;;;;;;;10.25;5.57;;;;;;;15.66;75.33;92850.09;4953528;28;20039;-94
2021/09/15 00:52:41;;;;;;;9.82;5.18;;;;;;;15.65;75.69;92853.78;4974793;28;20089;-94
2021/09/15 00:59:17;;;;;;;8.70;5.10;;;;;;;15.75;75.38;92869.38;4971717;28;20045;-93
2021/09/15 01:02:21;;;;;;;8.50;5.03;;;;;;;15.72;75.09;92862.09;4963184;28;20135;-93
2021/09/15 01:05:36;;;;;;;7.75;5.05;;;;;;;15.98;75.75;92894.56;4966499;28;20047;-93
2021/09/15 01:11:50;;;;;;;9.77;5.22;;;;;;;15.70;75.63;92854.44;4957471;28;20046;-92
2021/09/15 01:14:54;;;;;;;7.03;4.53;;;;;;;15.70;75.57;92851.03;4986184;28;20058;-93
2021/09/15 01:18:14;;;;;;;;;;;;;;;;;;;;;
2021/09/15 01:25:01;;;;;;;5.77;3.90;;;;;;;15.88;75.55;92857.91;4943524;28;20046;-93
2021/09/15 01:32:06;;;;;;;8.68;4.63;;;;;;;16.13;75.54;92895.97;4972805;28;20401;-94
2021/09/15 01:41:53;;;;;;;7.50;5.18;;;;;;;15.81;76.11;92842.53;4974867;28;20039;-95
2021/09/15 01:48:41;;;;;;;7.13;4.93;;;;;;;15.96;76.23;92861.63;4948334;28;20047;-92
2021/09/15 01:58:18;;;;;;;8.15;5.45;;;;;;;16.10;76.74;92870.19;4992094;28;20042;-93
2021/09/15 02:04:53;;;;;;;;;;;;;;;;;;;;;
2021/09/15 02:08:13;;;;;;;9.07;5.72;;;;;;;16.14;76.82;92870.34;4961850;28;20066;-95
2021/09/15 02:11:30;;;;;;;;;;;;;;;;;;;;;
2021/09/15 02:14:32;;;;;;;;;;;;;;;;;;;;;
2021/09/15 02:17:28;;;;;;;8.07;5.28;;;;;;;15.94;76.89;92840.84;4941234;29;20091;-94
2021/09/15 02:20:35;;;;;;;;;;;;;;;;;;;;;
2021/09/15 02:23:55;;;;;;;;;;;;;;;;;;;;;
2021/09/15 02:30:35;;;;;;;9.40;5.55;;;;;;;16.17;76.73;92869.72;4955540;28;20051;-94
2021/09/15 02:33:46;;;;;;;;;;;;;;;;;;;;;
2021/09/15 02:37:09;;;;;;;7.57;4.82;;;;;;;15.90;76.35;92833.84;4956458;29;20039;-93
2021/09/15 02:39:59;;;;;;;6.80;4.85;;;;;;;16.28;76.27;92883.38;4915260;28;20054;-93
2021/09/15 02:43:51;;;;;;;;;;;;;;;;;;;;;
2021/09/15 02:47:02;;;;;;;8.25;5.03;;;;;;;16.07;76.92;92839.13;4933523;28;20069;-94
2021/09/15 02:50:46;;;;;;;7.60;5.10;;;;;;;15.99;76.72;92832.75;4965728;28;20097;-93
2021/09/15 02:57:27;;;;;;;10.18;5.43;;;;;;;16.33;76.66;92878.72;4954541;28;20043;-94
2021/09/15 03:00:44;;;;;;;8.68;5.75;;;;;;;16.12;76.58;92840.81;4942073;28;20516;-93
2021/09/15 03:04:25;;;;;;;;;;;;;;;;;;;;;
2021/09/15 03:07:31;;;;;;;8.07;5.28;;;;;;;16.05;76.44;92840.50;4950693;28;20089;-94
2021/09/15 03:10:27;;;;;;;9.68;5.57;;;;;;;16.00;76.44;92836.94;4950698;28;20085;-94
2021/09/15 03:13:27;;;;;;;;;;;;;;;;;;;;;
2021/09/15 03:16:31;;;;;;;;;;;;;;;;;;;;;
2021/09/15 03:19:31;;;;;;;;;;;;;;;;;;;;;
2021/09/15 03:22:43;;;;;;;9.98;5.50;;;;;;;16.35;76.60;92902.97;4992493;28;20056;-93
2021/09/15 03:25:52;;;;;;;7.30;5.20;;;;;;;16.23;77.21;92879.84;4977666;28;20137;-93
2021/09/15 03:29:05;;;;;;;;;;;;;;;;;;;;;
2021/09/15 03:38:18;;;;;;;8.05;5.32;;;;;;;16.45;76.40;92897.38;4927972;28;20058;-95
2021/09/15 03:41:37;;;;;;;9.48;5.53;;;;;;;16.38;76.07;92885.72;4953275;28;20046;-93
2021/09/15 03:44:26;;;;;;;;;;;;;;;;;;;;;
2021/09/15 03:47:32;;;;;;;9.90;5.85;;;;;;;16.17;75.95;92853.88;4974377;28;20487;-94
2021/09/15 03:51:02;;;;;;;;;;;;;;;;;;;;;
2021/09/15 03:53:56;;;;;;;10.27;5.97;;;;;;;16.49;75.90;92902.03;4993563;28;20030;-93
2021/09/15 04:03:18;;;;;;;;;;;;;;;;;;;;;
2021/09/15 04:09:52;;;;;;;7.38;5.32;;;;;;;16.27;76.02;92874.69;4954362;28;20050;-93
2021/09/15 04:12:26;;;;;;;7.80;5.03;;;;;;;16.22;76.07;92862.41;4978316;28;20093;-93
2021/09/15 04:15:56;;;;;;;9.50;6.03;;;;;;;16.24;76.32;92859.47;4966812;28;20035;-93
2021/09/15 04:18:45;;;;;;;8.70;6.10;;;;;;;16.23;76.30;92869.28;4968387;28;20042;-95
2021/09/15 04:37:11;;;;;;;10.82;6.53;;;;;;;16.36;78.20;92899.22;4970588;28;20054;-93
2021/09/15 04:40:23;;;;;;;9.13;6.30;;;;;;;16.32;78.14;92889.59;4971234;28;20039;-93
2021/09/15 04:43:15;;;;;;;10.80;6.55;;;;;;;16.40;78.01;92908.09;4971200;28;20045;-90
2021/09/15 04:46:24;;;;;;;9.52;6.32;;;;;;;16.26;78.33;92891.63;4970229;28;20075;-92
2021/09/15 04:49:11;;;;;;;10.73;6.30;;;;;;;16.30;78.02;92892.56;4983164;28;20155;-93
2021/09/15 04:52:30;;;;;;;9.82;5.97;;;;;;;16.25;78.52;92887.44;4942270;28;20300;-92
2021/09/15 04:55:29;;;;;;;;;;;;;;;;;;;;;
2021/09/15 04:58:13;;;;;;;10.10;6.47;;;;;;;16.23;79.00;92874.56;4985073;28;20047;-92
2021/09/15 05:01:07;;;;;;;9.65;6.00;;;;;;;16.35;78.56;92889.78;4973159;28;20039;-92
2021/09/15 05:04:30;;;;;;;;;;;;;;;;;;;;;
2021/09/15 05:07:21;;;;;;;9.63;5.82;;;;;;;16.27;78.32;92864.13;4954552;28;20046;-91
2021/09/15 05:10:09;;;;;;;8.07;5.22;;;;;;;16.31;78.71;92880.13;4953891;28;20046;-92
2021/09/15 05:13:16;;;;;;;12.00;6.95;;;;;;;16.26;78.97;92865.22;4955048;28;20082;-91
2021/09/15 05:16:14;;;;;;;10.13;6.68;;;;;;;16.27;79.03;92869.41;4967426;28;20035;-92
2021/09/15 05:25:53;;;;;;;16.13;7.38;;;;;;;16.61;78.97;92908.22;4969729;28;20057;-91
2021/09/15 05:29:22;;;;;;;;;;;;;;;;;;;;;
2021/09/15 05:32:22;;;;;;;9.23;5.57;;;;;;;16.31;78.95;92859.00;4971473;28;20039;-92
2021/09/15 05:35:10;;;;;;;10.23;7.18;;;;;;;16.35;78.78;92876.56;4954341;28;20027;-92
2021/09/15 05:42:08;;;;;;;11.63;6.35;;;;;;;16.63;79.45;92923.78;4950084;28;20523;-92
2021/09/15 05:45:41;;;;;;;16.08;6.13;;;;;;;16.40;79.90;92894.13;4971577;28;20038;-94
2021/09/15 05:48:55;;;;;;;11.77;6.57;;;;;;;16.55;79.86;92917.44;4949144;28;20043;-93
2021/09/15 05:51:46;;;;;;;12.07;7.75;;;;;;;16.52;80.51;92906.69;4950684;28;20053;-92
2021/09/15 05:55:11;;;;;;;;;;;;;;;;;;;;;
2021/09/15 05:58:21;;;;;;;13.13;7.03;;;;;;;16.70;81.24;92923.31;4941047;28;20185;-93
2021/09/15 06:00:57;;;;;;;13.07;7.35;;;;;;;16.41;81.45;92870.03;4936422;28;20105;-93
2021/09/15 06:04:24;;;;;;;;;;;;;;;;;;;;;
2021/09/15 06:07:59;;;;;;;10.90;7.55;;;;;;;16.61;80.89;92889.72;4952719;28;20562;-92
2021/09/15 06:10:43;;;;;;;;;;;;;;;;;;;;;
2021/09/15 06:17:06;;;;;;;11.30;6.93;;;;;;;16.83;81.98;92894.06;4948382;28;20134;-95
2021/09/15 06:49:45;;;;;;;;;;;;;;;;;;;;;
2021/09/15 07:00:23;;;;;;;9.95;7.07;;;;;;;17.19;78.65;92927.28;4982081;23;20058;-80
2021/09/15 07:02:49;;;;;;;11.90;7.30;;;;;;;17.20;78.93;92915.63;4981195;28;20548;-79
2021/09/15 07:05:15;;;;;;;14.02;8.05;;;;;;;17.18;79.30;92917.81;4980556;28;20034;-78
2021/09/15 07:07:42;;;;;;;13.35;7.32;;;;;;;17.19;79.98;92916.69;4981681;28;20038;-80
2021/09/15 07:10:08;;;;;;;12.88;8.20;;;;;;;17.18;79.90;92917.81;4996239;28;20089;-79
2021/09/15 07:12:36;;;;;;;12.98;7.85;;;;;;;17.15;80.44;92918.41;4999434;28;20042;-80
2021/09/15 07:15:02;;;;;;;13.93;7.60;;;;;;;17.16;81.16;92920.00;4997405;28;20483;-80
2021/09/15 07:17:28;;;;;;;11.02;6.93;;;;;;;17.08;80.76;92918.13;4999273;28;20483;-80
2021/09/15 07:19:53;;;;;;;12.88;7.28;;;;;;;17.13;82.07;92923.25;4997653;28;20390;-80
2021/09/15 07:22:19;;;;;;;12.65;7.78;;;;;;;17.17;81.79;92924.16;4999614;28;20043;-80
2021/09/15 07:24:44;;;;;;;12.32;8.10;;;;;;;17.17;80.74;92926.81;4998922;28;20084;-79
2021/09/15 07:27:10;;;;;;;17.35;7.82;;;;;;;17.26;81.13;92924.16;4974247;28;20042;-79
2021/09/15 07:29:36;;;;;;;13.18;7.38;;;;;;;17.34;80.71;92919.91;4968343;28;20039;-79
2021/09/15 07:32:02;;;;;;;12.52;7.70;;;;;;;17.41;79.89;92909.63;4980995;28;20058;-80
2021/09/15 07:34:27;;;;;;;21.85;7.95;;;;;;;17.41;79.63;92920.22;4999005;28;20373;-79
2021/09/15 07:36:53;;;;;;;13.35;8.18;;;;;;;17.44;79.60;92930.16;4992121;28;20492;-80
2021/09/15 07:39:19;;;;;;;11.32;7.80;;;;;;;17.42;80.05;92922.53;4977262;28;20045;-79
2021/09/15 07:41:45;;;;;;;14.10;8.55;;;;;;;17.47;80.60;92940.91;4961336;28;20043;-79
2021/09/15 07:44:11;;;;;;;14.07;8.65;;;;;;;17.46;80.69;92928.75;4960700;28;20023;-80
2021/09/15 07:46:37;;;;;;;15.85;9.15;;;;;;;17.53;81.98;92936.19;4971489;28;20407;-79
2021/09/15 07:49:02;;;;;;;17.15;7.70;;;;;;;17.52;82.13;92934.66;4979926;28;20049;-77
2021/09/15 07:51:28;;;;;;;16.23;7.80;;;;;;;17.52;82.03;92937.28;4974354;28;20030;-79
2021/09/15 07:53:53;;;;;;;14.88;8.10;;;;;;;17.50;81.06;92944.00;4996854;28;20072;-78
2021/09/15 07:56:19;;;;;;;13.02;8.85;;;;;;;17.47;81.42;92945.38;4979372;28;20034;-79
2021/09/15 07:58:45;;;;;;;16.08;8.63;;;;;;;17.45;82.55;92948.38;4985500;28;20038;-80
2021/09/15 08:01:11;;;;;;;14.45;9.25;;;;;;;17.48;82.46;92946.97;5016562;28;20038;-78
2021/09/15 08:03:36;;;;;;;14.32;8.68;;;;;;;17.50;83.11;92951.94;5017314;28;20038;-78
2021/09/15 08:06:04;;;;;;;14.50;9.07;;;;;;;17.53;82.62;92938.06;5017943;28;20076;-79
2021/09/15 08:08:31;;;;;;;13.45;8.63;;;;;;;17.57;83.72;92939.00;4999968;28;20443;-78
2021/09/15 08:10:57;;;;;;;14.65;8.52;;;;;;;17.62;83.46;92928.22;4983440;28;20034;-78
2021/09/15 08:13:25;;;;;;;11.88;8.00;;;;;;;17.69;83.20;92931.91;5000054;28;20068;-78
2021/09/15 08:15:51;;;;;;;12.48;8.48;;;;;;;17.77;83.46;92934.84;4999500;28;20025;-78
2021/09/15 08:18:17;;;;;;;14.63;8.23;;;;;;;17.82;82.92;92932.03;5017440;28;20125;-80
2021/09/15 08:20:46;;;;;;;13.50;7.97;;;;;;;17.87;82.41;92932.63;4999878;28;20084;-77
2021/09/15 08:23:19;;;;;;;16.40;8.50;;;;;;;17.90;82.56;92925.94;5017837;28;20034;-79
2021/09/15 08:25:45;;;;;;;17.02;9.57;;;;;;;17.89;82.85;92934.97;4999772;28;20147;-77
2021/09/15 08:28:11;;;;;;;15.40;8.88;;;;;;;17.92;83.38;92930.88;5006025;28;20029;-78
2021/09/15 08:30:37;;;;;;;15.07;8.77;;;;;;;17.92;82.72;92926.34;5018062;28;20065;-78
2021/09/15 08:33:03;;;;;;;12.50;7.95;;;;;;;17.92;84.11;92938.84;4998045;28;20029;-78
2021/09/15 08:35:28;;;;;;;16.55;8.48;;;;;;;17.82;82.57;92938.09;4980029;28;20045;-77
2021/09/15 08:37:54;;;;;;;14.07;8.32;;;;;;;17.77;81.91;92942.78;4987693;28;20038;-78
2021/09/15 08:40:20;;;;;;;20.42;9.60;;;;;;;17.77;81.58;92937.50;5018012;28;20042;-77
2021/09/15 08:42:45;;;;;;;20.58;9.10;;;;;;;17.64;80.67;92928.66;5018116;28;20025;-79
2021/09/15 08:45:12;;;;;;;14.18;8.98;;;;;;;17.41;79.83;92930.81;4989493;28;20112;-78
2021/09/15 08:47:42;;;;;;;16.23;8.10;;;;;;;17.48;79.91;92936.38;5005561;28;20076;-79
2021/09/15 08:50:10;;;;;;;12.75;7.32;;;;;;;17.41;79.00;92928.94;4991705;28;20516;-78
2021/09/15 08:52:36;;;;;;;11.57;7.32;;;;;;;17.39;78.79;92927.69;5007302;28;20116;-77
2021/09/15 08:55:03;;;;;;;12.85;8.55;;;;;;;17.38;80.29;92931.41;5017310;28;20131;-78
2021/09/15 08:57:29;;;;;;;12.80;7.95;;;;;;;17.31;84.17;92926.63;4999705;28;20029;-79
2021/09/15 08:59:55;;;;;;;15.40;8.18;;;;;;;17.37;84.41;92935.16;4975016;28;20057;-78
2021/09/15 09:02:21;;;;;;;15.88;8.90;;;;;;;17.36;85.30;92930.94;4972987;28;20094;-78
2021/09/15 09:05:00;;;;;;;15.20;9.80;;;;;;;17.31;83.97;92947.00;4968875;28;20041;-78
2021/09/15 09:07:31;;;;;;;16.00;9.27;;;;;;;17.28;85.05;92943.91;4941370;29;20051;-81
2021/09/15 09:09:59;;;;;;;19.20;8.85;;;;;;;17.27;84.76;92941.59;4966459;28;20039;-79
2021/09/15 09:12:28;;;;;;;14.65;8.48;;;;;;;17.25;84.40;92938.47;4977336;28;20082;-79
2021/09/15 09:15:22;;;;;;;12.52;8.25;;;;;;;17.25;84.70;92943.78;4960767;28;20035;-79
2021/09/15 09:18:00;;;;;;;16.40;9.57;;;;;;;17.23;83.74;92941.44;4935923;28;20456;-79
2021/09/15 09:20:31;;;;;;;13.32;9.05;;;;;;;17.21;85.25;92946.25;4977269;28;20054;-78
2021/09/15 09:23:18;;;;;;;12.68;7.63;;;;;;;17.14;85.70;92943.31;4976474;28;20035;-79
2021/09/15 09:25:49;;;;;;;11.70;7.70;;;;;;;17.10;85.28;92942.41;4978054;28;20047;-79
2021/09/15 09:28:30;;;;;;;16.95;8.85;;;;;;;17.03;85.78;92942.09;4976878;28;20034;-79
2021/09/15 09:31:10;;;;;;;13.98;9.35;;;;;;;16.98;86.38;92945.69;4977893;28;20088;-78
2021/09/15 09:33:46;;;;;;;14.35;8.57;;;;;;;16.91;86.78;92941.97;4977797;28;20038;-78
2021/09/15 09:36:12;;;;;;;13.35;8.93;;;;;;;16.87;86.94;92944.47;4959370;28;20066;-78
2021/09/15 09:38:41;;;;;;;13.73;8.32;;;;;;;16.83;86.41;92944.31;4968488;28;20030;-77
2021/09/15 09:41:13;;;;;;;14.50;9.00;;;;;;;16.78;88.26;92952.38;4988427;28;20030;-79
2021/09/15 09:43:45;;;;;;;14.43;8.07;;;;;;;16.77;88.04;92950.81;4977823;28;20077;-78
2021/09/15 09:46:13;;;;;;;16.10;8.93;;;;;;;16.77;87.45;92950.81;4977403;28;20030;-78
2021/09/15 09:48:56;;;;;;;12.55;8.65;;;;;;;16.78;88.60;92941.03;4976339;28;20358;-78
2021/09/15 09:51:34;;;;;;;14.98;9.13;;;;;;;16.78;88.85;92935.75;4977581;28;20043;-78
2021/09/15 09:54:23;;;;;;;16.00;8.98;;;;;;;16.74;87.91;92946.16;4977314;28;20038;-78
2021/09/15 09:56:54;;;;;;;13.38;8.70;;;;;;;16.72;87.88;92950.22;4957950;28;20050;-77
2021/09/15 09:59:21;;;;;;;13.15;8.13;;;;;;;16.66;85.43;92952.22;4982417;28;20052;-78
2021/09/15 10:01:49;;;;;;;13.80;9.57;;;;;;;16.61;86.53;92950.50;5032488;28;20115;-78
2021/09/15 10:04:16;;;;;;;17.17;9.25;;;;;;;16.58;87.33;92947.75;5017400;28;20034;-78
2021/09/15 10:06:44;;;;;;;14.80;8.02;;;;;;;16.53;87.79;92955.81;4999026;28;20522;-78
2021/09/15 10:09:10;;;;;;;14.02;8.13;;;;;;;16.38;88.10;92955.19;5016494;28;20033;-78
2021/09/15 10:11:38;;;;;;;14.55;7.72;;;;;;;16.29;89.57;92957.03;4998887;28;20042;-78
2021/09/15 10:14:07;;;;;;;15.35;8.82;;;;;;;16.36;88.94;92949.44;5017370;28;20029;-78
2021/09/15 10:16:39;;;;;;;14.90;8.20;;;;;;;16.43;90.13;92949.75;4999378;28;20097;-78
2021/09/15 10:19:08;;;;;;;12.50;7.85;;;;;;;16.47;89.54;92949.13;5016522;28;20117;-78
2021/09/15 10:21:35;;;;;;;13.15;7.90;;;;;;;16.49;89.71;92953.03;5016785;28;20492;-78
2021/09/15 10:24:03;;;;;;;14.73;10.10;;;;;;;16.59;89.48;92947.41;5016775;28;20133;-78
2021/09/15 10:26:33;;;;;;;14.85;9.35;;;;;;;16.70;89.71;92945.22;5016403;28;20041;-77
2021/09/15 10:29:28;;;;;;;13.05;8.27;;;;;;;16.81;88.74;92951.00;5016597;28;20021;-77
2021/09/15 10:31:59;;;;;;;16.02;8.00;;;;;;;16.85;88.98;92949.28;4998476;28;20052;-78
2021/09/15 10:34:39;;;;;;;13.00;7.75;;;;;;;16.81;88.48;92951.00;5016712;28;20025;-78
2021/09/15 10:37:11;;;;;;;12.65;8.00;;;;;;;16.81;88.92;92949.13;4998929;28;20026;-78
2021/09/15 10:40:07;;;;;;;13.73;7.82;;;;;;;16.87;87.77;92941.06;5011453;28;20041;-78
2021/09/15 10:45:13;;;;;;;13.68;7.78;;;;;;;16.86;88.53;92937.63;5016270;28;20033;-78
2021/09/15 10:47:46;;;;;;;13.70;8.45;;;;;;;16.91;89.02;92939.31;4998790;28;20100;-78
2021/09/15 10:50:30;;;;;;;13.50;8.27;;;;;;;16.92;90.16;92938.25;5019338;28;20048;-78
2021/09/15 10:53:08;;;;;;;15.00;8.68;;;;;;;16.89;90.68;92934.38;5019877;28;20068;-77
2021/09/15 10:55:46;;;;;;;15.65;9.02;;;;;;;16.91;90.19;92939.31;5019658;28;20046;-77
2021/09/15 10:58:16;;;;;;;15.07;8.18;;;;;;;16.88;90.83;92940.72;5010027;28;20108;-77
2021/09/15 11:00:57;;;;;;;14.32;7.88;;;;;;;16.80;90.01;92944.19;5019860;28;20037;-78
2021/09/15 11:03:28;;;;;;;12.60;7.65;;;;;;;16.87;91.44;92939.19;5021262;28;20045;-77
2021/09/15 11:05:55;;;;;;;13.77;8.35;;;;;;;16.84;90.09;92934.50;5020475;28;20045;-77
2021/09/15 11:08:22;;;;;;;11.93;7.10;;;;;;;16.84;90.27;92940.59;5020074;28;20030;-77
2021/09/15 11:10:49;;;;;;;14.52;6.95;;;;;;;16.85;89.61;92936.06;5019520;28;20036;-78
2021/09/15 11:13:36;;;;;;;13.60;7.05;;;;;;;16.79;88.44;92938.09;5019075;28;20037;-78
2021/09/15 11:16:39;;;;;;;10.13;6.13;;;;;;;16.79;89.31;92938.09;5019029;28;20099;-78
2021/09/15 11:19:16;;;;;;;11.65;6.97;;;;;;;16.68;90.41;92939.47;5019122;28;20030;-78
2021/09/15 11:21:51;;;;;;;11.98;7.20;;;;;;;16.67;91.93;92940.56;5019258;28;20461;-78
2021/09/15 11:24:22;;;;;;;12.20;8.30;;;;;;;16.74;91.67;92938.22;5034048;28;20049;-79
2021/09/15 11:26:51;;;;;;;12.90;8.47;;;;;;;16.77;91.13;92929.66;5019230;28;20037;-78
2021/09/15 11:29:38;;;;;;;13.25;7.97;;;;;;;16.92;91.27;92938.25;5018993;28;20285;-78
2021/09/15 11:32:06;;;;;;;11.20;7.05;;;;;;;16.97;91.44;92930.91;4999060;28;20121;-77
2021/09/15 11:34:37;;;;;;;13.07;7.05;;;;;;;17.04;91.00;92933.06;4993647;28;20369;-78
2021/09/15 11:37:03;;;;;;;11.15;7.32;;;;;;;17.06;90.68;92922.97;5019427;28;20065;-78
2021/09/15 11:39:28;;;;;;;12.60;7.63;;;;;;;17.04;90.62;92917.19;5019264;28;20421;-77
2021/09/15 11:42:02;;;;;;;12.57;8.05;;;;;;;17.12;90.02;92924.34;5019204;28;20168;-77
2021/09/15 11:44:28;;;;;;;13.60;9.20;;;;;;;17.12;91.08;92929.63;5001488;28;20102;-78
2021/09/15 11:46:53;;;;;;;15.38;8.10;;;;;;;17.14;91.32;92926.69;5019683;28;20119;-78
2021/09/15 11:49:30;;;;;;;10.45;6.35;;;;;;;17.11;91.21;92928.06;5019272;28;20038;-77
2021/09/15 11:51:59;;;;;;;12.30;7.78;;;;;;;17.15;89.10;92928.22;5018676;28;20049;-78
2021/09/15 11:54:26;;;;;;;13.55;7.38;;;;;;;17.11;89.08;92920.13;5019522;28;20084;-78
2021/09/15 11:56:54;;;;;;;14.18;8.68;;;;;;;17.15;88.58;92922.94;5019334;28;20407;-78
2021/09/15 11:59:20;;;;;;;10.35;6.97;;;;;;;17.12;89.31;92919.06;5031270;28;20069;-78
2021/09/15 12:01:47;;;;;;;12.38;7.85;;;;;;;17.16;89.86;92920.00;5017515;28;20080;-78
2021/09/15 12:04:20;;;;;;;13.57;8.55;;;;;;;17.16;90.13;92920.00;5019864;28;20042;-78
2021/09/15 12:06:46;;;;;;;13.43;8.60;;;;;;;17.18;87.96;92915.16;5019015;28;20091;-78
2021/09/15 12:09:14;;;;;;;13.52;8.05;;;;;;;17.09;88.54;92918.91;5003660;28;20038;-78
2021/09/15 12:11:41;;;;;;;11.15;7.03;;;;;;;16.99;90.09;92914.75;5017998;28;20051;-78
2021/09/15 12:14:09;;;;;;;15.90;8.50;;;;;;;17.03;90.09;92899.78;5000827;28;20026;-77
2021/09/15 12:16:39;;;;;;;15.82;8.80;;;;;;;16.96;90.18;92904.78;5018944;28;20042;-77
2021/09/15 12:19:18;;;;;;;12.75;8.02;;;;;;;16.99;91.06;92906.81;5018640;28;20041;-77
2021/09/15 12:21:47;;;;;;;12.85;7.57;;;;;;;17.05;90.52;92902.91;5000850;28;20040;-78
2021/09/15 12:24:14;;;;;;;18.55;7.45;;;;;;;17.01;90.21;92901.97;5000477;28;20036;-78
2021/09/15 12:26:40;;;;;;;9.40;6.35;;;;;;;17.12;90.04;92913.78;5018236;28;20045;-77
2021/09/15 12:29:18;;;;;;;13.68;8.70;;;;;;;17.13;90.60;92904.72;4996927;28;20378;-78
2021/09/15 12:31:49;;;;;;;14.13;7.78;;;;;;;17.28;90.55;92890.97;4986219;28;20045;-78
2021/09/15 12:34:36;;;;;;;14.13;8.70;;;;;;;17.22;90.23;92897.53;5018923;28;20084;-77
2021/09/15 12:37:16;;;;;;;13.68;7.93;;;;;;;17.26;90.71;92897.69;5018139;28;20106;-77
2021/09/15 12:40:20;;;;;;;11.93;7.78;;;;;;;17.33;89.78;92894.56;5011551;28;20052;-77
2021/09/15 12:43:00;;;;;;;13.07;7.40;;;;;;;17.28;90.01;92896.28;5009358;28;20061;-78
2021/09/15 12:45:27;;;;;;;13.90;8.27;;;;;;;17.35;90.32;92879.91;5017504;28;20041;-78
2021/09/15 12:47:53;;;;;;;11.20;7.00;;;;;;;17.49;88.83;92882.34;5017872;28;20030;-78
2021/09/15 12:50:22;;;;;;;12.98;7.47;;;;;;;17.48;89.07;92888.72;5008513;28;20034;-78
2021/09/15 12:52:57;;;;;;;12.10;7.80;;;;;;;17.43;89.53;92888.91;5017919;28;20030;-78
2021/09/15 12:55:24;;;;;;;12.27;6.68;;;;;;;17.42;89.18;92885.47;5017890;28;20034;-78
2021/09/15 12:58:01;;;;;;;11.63;7.22;;;;;;;17.32;89.93;92875.25;5015840;28;20068;-77
2021/09/15 13:00:33;;;;;;;11.20;7.35;;;;;;;17.34;90.22;92877.56;5016218;28;20034;-78
2021/09/15 13:03:04;;;;;;;12.60;6.80;;;;;;;17.35;90.74;92869.31;5003618;28;20038;-78
2021/09/15 13:05:34;;;;;;;11.05;7.25;;;;;;;17.37;90.64;92874.31;5004884;28;20039;-78
2021/09/15 13:08:01;;;;;;;14.45;7.20;;;;;;;17.48;90.19;92846.38;5016474;28;20033;-77
2021/09/15 13:10:27;;;;;;;11.30;7.00;;;;;;;17.72;89.27;92845.00;5016839;28;20113;-77
2021/09/15 13:12:53;;;;;;;9.55;6.38;;;;;;;17.82;88.25;92842.00;4994019;28;20062;-77
2021/09/15 13:15:18;;;;;;;11.63;7.03;;;;;;;17.94;88.06;92836.78;4999403;28;20030;-78
2021/09/15 13:17:44;;;;;;;12.02;6.40;;;;;;;17.95;86.93;92841.00;5016972;28;20061;-78
2021/09/15 13:20:13;;;;;;;10.48;5.82;;;;;;;17.95;86.71;92848.16;5017614;28;20040;-78
2021/09/15 13:22:39;;;;;;;9.65;5.88;;;;;;;17.98;86.70;92848.28;4999314;28;20132;-78
2021/09/15 13:25:05;;;;;;;11.80;6.07;;;;;;;17.79;85.92;92840.00;4999614;28;20036;-77
2021/09/15 13:27:34;;;;;;;13.32;6.13;;;;;;;17.87;86.85;92831.22;5015785;28;20069;-77
2021/09/15 13:30:01;;;;;;;12.15;6.40;;;;;;;17.82;86.12;92839.38;5016916;28;20443;-77
2021/09/15 13:32:27;;;;;;;12.23;6.25;;;;;;;17.77;86.77;92842.19;5015778;28;20034;-77
2021/09/15 13:34:53;;;;;;;12.07;5.55;;;;;;;17.71;87.68;92838.16;5017100;28;20049;-77
2021/09/15 13:37:19;;;;;;;13.93;6.28;;;;;;;17.69;88.19;92841.88;4983636;28;20049;-77
2021/09/15 13:39:44;;;;;;;13.98;6.10;;;;;;;17.61;88.70;92832.16;5016862;28;20030;-78
2021/09/15 13:42:10;;;;;;;12.15;6.18;;;;;;;17.53;89.07;92832.19;5017249;28;20037;-78
2021/09/15 13:44:36;;;;;;;7.75;4.97;;;;;;;17.63;88.44;92834.47;5015592;28;20084;-78
2021/09/15 13:47:01;;;;;;;9.63;6.25;;;;;;;17.61;88.67;92823.44;5016785;28;20045;-79
2021/09/15 13:49:27;;;;;;;14.80;6.70;;;;;;;17.60;89.15;92822.63;5016065;28;20034;-78
2021/09/15 13:51:53;;;;;;;11.38;5.80;;;;;;;17.57;88.08;92825.16;5005076;28;20093;-79
2021/09/15 13:54:19;;;;;;;8.60;5.55;;;;;;;17.62;88.71;92825.75;4996259;28;20098;-78
2021/09/15 13:56:45;;;;;;;9.23;5.60;;;;;;;17.63;88.95;92810.63;4979443;28;20039;-78
2021/09/15 13:59:10;;;;;;;11.25;6.72;;;;;;;17.77;87.96;92826.28;5006628;28;20054;-77
2021/09/15 14:01:36;;;;;;;8.85;5.60;;;;;;;17.88;87.17;92827.50;5016767;28;20129;-77
2021/09/15 14:04:02;;;;;;;7.95;5.32;;;;;;;17.96;86.67;92823.97;4999237;28;20034;-77
2021/09/15 14:06:27;;;;;;;9.00;5.65;;;;;;;17.98;86.04;92821.78;5013983;28;20033;-77
2021/09/15 14:08:53;;;;;;;8.85;5.13;;;;;;;17.96;85.87;92816.03;4981912;28;20030;-78
2021/09/15 14:11:19;;;;;;;8.43;5.40;;;;;;;17.92;86.77;92823.06;5001958;28;20535;-77
2021/09/15 14:13:45;;;;;;;9.45;5.70;;;;;;;17.88;85.90;92830.91;5017047;28;20084;-78
2021/09/15 14:16:11;;;;;;;9.77;5.28;;;;;;;17.85;86.50;92833.41;5017128;28;20022;-78
2021/09/15 14:18:37;;;;;;;9.57;5.47;;;;;;;17.79;87.35;92835.47;5017225;28;20061;-77
2021/09/15 14:21:04;;;;;;;12.68;5.80;;;;;;;17.74;87.52;92827.69;5015006;28;20037;-77
2021/09/15 14:23:29;;;;;;;8.75;5.45;;;;;;;17.74;87.93;92832.22;4979447;28;20089;-77
2021/09/15 14:25:55;;;;;;;10.32;5.75;;;;;;;17.65;88.16;92834.91;5000806;28;20530;-78
2021/09/15 14:28:21;;;;;;;7.75;5.03;;;;;;;17.62;88.42;92836.34;5011672;28;20044;-78
2021/09/15 14:30:46;;;;;;;9.07;5.55;;;;;;;17.64;87.95;92825.44;5006689;28;20495;-78
2021/09/15 14:33:12;;;;;;;11.48;5.95;;;;;;;17.66;88.37;92829.31;5022453;28;20045;-78
2021/09/15 14:35:38;;;;;;;9.38;6.10;;;;;;;17.69;88.44;92822.59;5039651;28;20387;-79
2021/09/15 14:38:04;;;;;;;10.13;5.68;;;;;;;17.73;88.25;92826.16;5031687;28;20046;-78
2021/09/15 14:40:29;;;;;;;8.43;5.43;;;;;;;17.69;88.67;92823.34;5002848;28;20034;-78
2021/09/15 14:42:55;;;;;;;10.20;5.53;;;;;;;17.78;88.89;92827.84;5020008;28;20121;-78
2021/09/15 14:45:21;;;;;;;8.77;5.20;;;;;;;17.84;88.91;92826.59;5020180;28;20045;-78
2021/09/15 14:47:46;;;;;;;7.78;4.90;;;;;;;17.86;88.85;92824.38;5002167;28;20044;-77
2021/09/15 14:50:12;;;;;;;9.63;5.70;;;;;;;17.87;88.47;92824.03;5001812;28;20113;-80
2021/09/15 14:52:39;;;;;;;10.73;5.72;;;;;;;17.86;89.19;92821.75;5000900;28;20396;-79
2021/09/15 14:55:06;;;;;;;11.07;6.20;;;;;;;17.84;89.34;92818.63;5019181;28;20034;-78
2021/09/15 14:57:33;;;;;;;10.63;6.10;;;;;;;17.81;90.59;92827.19;5018494;28;20060;-77
2021/09/15 14:59:58;;;;;;;10.80;6.22;;;;;;;17.80;89.88;92825.63;4980896;28;20054;-78
2021/09/15 15:02:24;;;;;;;11.77;6.72;;;;;;;17.78;89.85;92833.91;4955722;28;20093;-78
2021/09/15 15:04:50;;;;;;;10.82;7.63;;;;;;;17.78;89.62;92823.31;4962279;28;20039;-78
2021/09/15 15:07:15;;;;;;;10.55;7.07;;;;;;;17.77;89.54;92826.28;4979913;28;20058;-77
2021/09/15 15:09:43;;;;;;;11.70;7.13;;;;;;;17.78;90.11;92819.88;4983689;28;20026;-78
2021/09/15 15:12:10;;;;;;;9.85;6.75;;;;;;;17.77;90.18;92821.00;4997604;28;20085;-78
2021/09/15 15:14:37;;;;;;;12.02;6.82;;;;;;;17.76;90.12;92808.84;4999203;28;20053;-77
2021/09/15 15:17:02;;;;;;;10.90;5.68;;;;;;;17.73;91.22;92806.84;4981727;28;20448;-78
2021/09/15 15:19:29;;;;;;;11.02;6.30;;;;;;;17.67;91.02;92800.97;4998532;28;20039;-79